createdAt,value
2019-03-10T00:00:37.046Z,96624.18
2019-03-10T00:03:06.977Z,96632.48
2019-03-10T00:05:36.771Z,96629.80
2019-03-10T00:08:07.944Z,96635.82
2019-03-10T00:10:37.945Z,96636.30
2019-03-10T00:13:07.554Z,96643.91
2019-03-10T00:15:37.172Z,96649.78
2019-03-10T00:18:06.927Z,96634.66
2019-03-10T00:20:36.725Z,96634.66
2019-03-10T00:23:06.983Z,96626.48
2019-03-10T00:25:36.679Z,96629.89
2019-03-10T00:28:06.338Z,96636.16
2019-03-10T00:30:36.002Z,96630.33
2019-03-10T00:33:05.761Z,96627.52
2019-03-10T00:35:35.348Z,96627.48
2019-03-10T00:38:05.040Z,96624.33
2019-03-10T00:40:54.442Z,96616.59
2019-03-10T00:44:15.977Z,96618.47
2019-03-10T00:47:07.915Z,96618.18
2019-03-10T00:49:53.716Z,96619.92
2019-03-10T00:52:45.823Z,96621.68
2019-03-10T00:55:15.439Z,96619.27
2019-03-10T00:57:45.099Z,96613.81
2019-03-10T01:00:19.148Z,96603.22
2019-03-10T01:02:48.805Z,96618.05
2019-03-10T01:05:19.364Z,96612.73
2019-03-10T01:07:49.467Z,96609.13
2019-03-10T01:10:19.147Z,96598.37
2019-03-10T01:12:49.144Z,96598.77
2019-03-10T01:15:18.826Z,96600.63
2019-03-10T01:17:50.933Z,96605.36
2019-03-10T01:20:20.626Z,96597.64
2019-03-10T01:22:50.363Z,96614.74
2019-03-10T01:25:20.056Z,96612.62
2019-03-10T01:27:49.676Z,96615.95
2019-03-10T01:30:21.181Z,96620.36
2019-03-10T01:33:15.008Z,96608.37
2019-03-10T01:35:44.627Z,96615.59
2019-03-10T01:38:14.249Z,96622.38
2019-03-10T01:40:43.855Z,96625.39
2019-03-10T01:43:13.482Z,96630.55
2019-03-10T01:45:43.090Z,96620.12
2019-03-10T01:48:12.682Z,96637.17
2019-03-10T01:50:42.374Z,96623.20
2019-03-10T01:53:11.965Z,96618.60
2019-03-10T01:55:41.629Z,96624.79
2019-03-10T01:58:11.256Z,96617.79
2019-03-10T02:00:41.015Z,96635.25
2019-03-10T02:03:10.644Z,96613.91
2019-03-10T02:05:40.240Z,96617.34
2019-03-10T02:08:09.836Z,96624.90
2019-03-10T02:10:39.700Z,96625.16
2019-03-10T02:13:09.297Z,96626.11
2019-03-10T02:15:38.916Z,96625.37
2019-03-10T02:18:08.575Z,96642.33
2019-03-10T02:20:38.190Z,96626.05
2019-03-10T02:23:07.819Z,96628.36
2019-03-10T02:25:37.419Z,96634.71
2019-03-10T02:28:07.066Z,96636.42
2019-03-10T02:30:36.778Z,96629.30
2019-03-10T02:33:06.457Z,96637.80
2019-03-10T02:35:36.083Z,96645.42
2019-03-10T02:38:05.742Z,96654.77
2019-03-10T02:40:35.372Z,96665.76
2019-03-10T02:43:05.050Z,96658.46
2019-03-10T02:45:34.656Z,96664.45
2019-03-10T02:48:04.624Z,96675.19
2019-03-10T02:50:34.249Z,96662.28
2019-03-10T02:53:03.853Z,96662.78
2019-03-10T02:55:33.475Z,96662.91
2019-03-10T02:58:03.097Z,96663.36
2019-03-10T03:00:32.790Z,96671.02
2019-03-10T03:03:02.384Z,96663.16
2019-03-10T03:05:32.003Z,96659.59
2019-03-10T03:08:01.622Z,96663.66
2019-03-10T03:10:31.281Z,96664.27
2019-03-10T03:13:00.902Z,96667.30
2019-03-10T03:15:30.487Z,96651.97
2019-03-10T03:18:00.099Z,96659.89
2019-03-10T03:20:29.690Z,96657.83
2019-03-10T03:22:59.304Z,96663.94
2019-03-10T03:25:28.898Z,96659.02
2019-03-10T03:27:58.505Z,96664.33
2019-03-10T03:30:28.218Z,96658.96
2019-03-10T03:32:57.788Z,96657.69
2019-03-10T03:35:46.450Z,96660.30
2019-03-10T03:38:20.391Z,96650.93
2019-03-10T03:41:10.034Z,96656.05
2019-03-10T03:43:39.658Z,96656.17
2019-03-10T03:46:09.309Z,96651.30
2019-03-10T03:48:38.928Z,96654.52
2019-03-10T03:51:08.658Z,96644.73
2019-03-10T03:53:38.263Z,96652.44
2019-03-10T03:56:07.942Z,96642.16
2019-03-10T03:58:37.773Z,96639.84
2019-03-10T04:01:12.052Z,96644.50
2019-03-10T04:03:41.688Z,96636.36
2019-03-10T04:06:11.268Z,96636.98
2019-03-10T04:08:40.909Z,96643.33
2019-03-10T04:11:10.578Z,96632.87
2019-03-10T04:13:40.167Z,96639.52
2019-03-10T04:16:09.823Z,96637.19
2019-03-10T04:18:39.448Z,96627.41
2019-03-10T04:21:09.024Z,96618.77
2019-03-10T04:23:38.649Z,96619.27
2019-03-10T04:26:08.249Z,96627.70
2019-03-10T04:28:37.844Z,96625.83
2019-03-10T04:31:07.524Z,96626.97
2019-03-10T04:33:37.111Z,96637.08
2019-03-10T04:36:06.790Z,96640.98
2019-03-10T04:38:36.373Z,96635.66
2019-03-10T04:41:06.055Z,96638.05
2019-03-10T04:43:35.664Z,96640.66
2019-03-10T04:46:05.618Z,96645.28
2019-03-10T04:48:35.201Z,96642.52
2019-03-10T04:51:04.834Z,96639.41
2019-03-10T04:53:34.407Z,96645.20
2019-03-10T04:56:05.734Z,96644.53
2019-03-10T04:58:36.984Z,96634.83
2019-03-10T05:01:06.645Z,96638.13
2019-03-10T05:03:36.254Z,96628.25
2019-03-10T05:06:05.911Z,96624.58
2019-03-10T05:08:35.516Z,96629.25
2019-03-10T05:11:05.172Z,96632.84
2019-03-10T05:13:34.781Z,96633.49
2019-03-10T05:16:04.514Z,96626.16
2019-03-10T05:18:34.120Z,96630.07
2019-03-10T05:21:03.806Z,96627.15
2019-03-10T05:23:42.213Z,96628.47
2019-03-10T05:26:11.970Z,96612.14
2019-03-10T05:28:44.702Z,96611.89
2019-03-10T05:31:14.284Z,96611.44
2019-03-10T05:33:43.957Z,96615.71
2019-03-10T05:36:13.647Z,96610.44
2019-03-10T05:38:43.268Z,96607.00
2019-03-10T05:41:12.920Z,96604.58
2019-03-10T05:43:42.505Z,96599.73
2019-03-10T05:46:12.118Z,96604.30
2019-03-10T05:48:41.734Z,96602.63
2019-03-10T05:51:11.323Z,96609.90
2019-03-10T05:53:40.944Z,96610.48
2019-03-10T05:56:10.531Z,96601.98
2019-03-10T05:58:40.118Z,96598.30
2019-03-10T06:01:09.733Z,96598.27
2019-03-10T06:03:39.330Z,96607.41
2019-03-10T06:06:08.938Z,96599.05
2019-03-10T06:08:38.542Z,96591.09
2019-03-10T06:11:08.234Z,96582.41
2019-03-10T06:13:37.820Z,96594.16
2019-03-10T06:16:07.478Z,96590.38
2019-03-10T06:18:37.091Z,96578.97
2019-03-10T06:21:06.681Z,96580.19
2019-03-10T06:23:36.289Z,96587.39
2019-03-10T06:26:05.948Z,96587.86
2019-03-10T06:28:35.560Z,96579.44
2019-03-10T06:31:05.356Z,96572.05
2019-03-10T06:33:34.975Z,96577.70
2019-03-10T06:36:04.722Z,96570.28
2019-03-10T06:38:34.309Z,96569.66
2019-03-10T06:41:03.924Z,96574.83
2019-03-10T06:43:33.516Z,96570.17
2019-03-10T06:46:03.201Z,96580.45
2019-03-10T06:48:32.791Z,96577.48
2019-03-10T06:51:02.407Z,96571.11
2019-03-10T06:53:32.017Z,96570.61
2019-03-10T06:56:01.596Z,96572.65
2019-03-10T06:58:31.213Z,96562.95
2019-03-10T07:01:00.878Z,96556.48
2019-03-10T07:03:32.791Z,96544.96
2019-03-10T07:06:02.407Z,96543.56
2019-03-10T07:08:32.740Z,96544.81
2019-03-10T07:11:02.388Z,96552.09
2019-03-10T07:13:32.006Z,96558.30
2019-03-10T07:16:01.695Z,96558.41
2019-03-10T07:18:31.282Z,96543.63
2019-03-10T07:21:00.895Z,96548.78
2019-03-10T07:23:30.482Z,96559.80
2019-03-10T07:26:06.204Z,96566.03
2019-03-10T07:28:44.345Z,96560.87
2019-03-10T07:31:15.602Z,96551.20
2019-03-10T07:33:46.825Z,96546.12
2019-03-10T07:36:18.092Z,96549.42
2019-03-10T07:39:07.575Z,96544.09
2019-03-10T07:41:45.066Z,96532.55
2019-03-10T07:44:32.505Z,96522.70
2019-03-10T07:47:06.743Z,96519.83
2019-03-10T07:49:40.661Z,96522.56
2019-03-10T07:52:20.407Z,96527.13
2019-03-10T07:54:46.039Z,96531.30
2019-03-10T07:57:33.607Z,96516.86
2019-03-10T08:00:02.999Z,96507.63
2019-03-10T08:02:43.105Z,96507.10
2019-03-10T08:05:12.503Z,96504.76
2019-03-10T08:07:43.745Z,96512.38
2019-03-10T08:10:16.175Z,96502.00
2019-03-10T08:13:03.606Z,96506.77
2019-03-10T08:15:46.439Z,96503.97
2019-03-10T08:18:20.682Z,96475.02
2019-03-10T08:20:54.655Z,96473.23
2019-03-10T08:23:38.792Z,96469.36
2019-03-10T08:26:13.005Z,96474.70
2019-03-10T08:28:44.348Z,96456.48
2019-03-10T08:31:16.496Z,96453.70
2019-03-10T08:34:04.160Z,96436.74
2019-03-10T08:36:44.670Z,96444.55
2019-03-10T08:39:14.116Z,96423.88
2019-03-10T08:41:43.508Z,96419.41
2019-03-10T08:44:20.742Z,96432.80
2019-03-10T08:47:03.952Z,96416.62
2019-03-10T08:49:45.201Z,96411.02
2019-03-10T08:52:16.741Z,96392.23
2019-03-10T08:54:59.709Z,96389.58
2019-03-10T08:57:33.952Z,96389.69
2019-03-10T09:00:08.835Z,96370.94
2019-03-10T09:02:43.272Z,96372.56
2019-03-10T09:05:26.738Z,96360.41
2019-03-10T09:08:00.586Z,96345.80
2019-03-10T09:10:47.801Z,96345.34
2019-03-10T09:13:19.078Z,96341.23
2019-03-10T09:15:56.133Z,96322.12
2019-03-10T09:18:43.395Z,96328.36
2019-03-10T09:21:26.635Z,96314.14
2019-03-10T09:23:58.933Z,96296.75
2019-03-10T09:26:30.967Z,96302.49
2019-03-10T09:29:07.834Z,96291.09
2019-03-10T09:31:39.096Z,96279.64
2019-03-10T09:34:13.116Z,96287.95
2019-03-10T09:36:50.552Z,96272.30
2019-03-10T09:39:19.929Z,96274.35
2019-03-10T09:41:53.891Z,96253.70
2019-03-10T09:44:25.137Z,96237.73
2019-03-10T09:46:56.402Z,96232.73
2019-03-10T09:49:27.641Z,96220.94
2019-03-10T09:52:04.653Z,96219.53
2019-03-10T09:54:51.950Z,96219.00
2019-03-10T09:57:23.219Z,96205.08
2019-03-10T09:59:54.526Z,96190.70
2019-03-10T10:02:38.098Z,96196.25
2019-03-10T10:05:16.728Z,96184.53
2019-03-10T10:07:56.857Z,96165.97
2019-03-10T10:10:30.922Z,96157.44
2019-03-10T10:13:03.109Z,96175.05
2019-03-10T10:15:32.483Z,96157.54
2019-03-10T10:18:15.538Z,96152.48
2019-03-10T10:20:53.154Z,96147.98
2019-03-10T10:23:31.624Z,96138.97
2019-03-10T10:26:14.454Z,96133.12
2019-03-10T10:28:52.975Z,96123.45
2019-03-10T10:31:36.269Z,96122.43
2019-03-10T10:34:10.572Z,96099.05
2019-03-10T10:36:59.973Z,96090.34
2019-03-10T10:39:34.132Z,96090.45
2019-03-10T10:42:03.567Z,96086.23
2019-03-10T10:44:34.835Z,96099.05
2019-03-10T10:47:08.993Z,96094.86
2019-03-10T10:49:47.366Z,96089.34
2019-03-10T10:52:21.440Z,96091.70
2019-03-10T10:54:52.726Z,96095.41
2019-03-10T10:57:36.098Z,96080.59
2019-03-10T11:00:35.787Z,96085.75
2019-03-10T11:03:12.181Z,96081.48
2019-03-10T11:05:43.045Z,96072.98
2019-03-10T11:08:14.314Z,96080.53
2019-03-10T11:10:51.474Z,96053.02
2019-03-10T11:13:28.764Z,96053.30
2019-03-10T11:16:16.435Z,96059.05
2019-03-10T11:18:53.377Z,96057.41
2019-03-10T11:21:27.587Z,96049.73
2019-03-10T11:24:04.913Z,96025.75
2019-03-10T11:26:36.124Z,96024.17
2019-03-10T11:29:13.390Z,95997.38
2019-03-10T11:32:02.811Z,95999.84
2019-03-10T11:34:49.293Z,96009.38
2019-03-10T11:37:38.756Z,96009.63
2019-03-10T11:40:12.406Z,96005.99
2019-03-10T11:42:58.890Z,95979.36
2019-03-10T11:45:30.197Z,95974.09
2019-03-10T11:48:14.772Z,95971.30
2019-03-10T11:51:04.086Z,95959.70
2019-03-10T11:53:35.395Z,95957.62
2019-03-10T11:56:16.720Z,95944.39
2019-03-10T11:58:47.929Z,95937.90
2019-03-10T12:01:22.269Z,95932.90
2019-03-10T12:03:56.537Z,95930.75
2019-03-10T12:06:33.607Z,95924.25
2019-03-10T12:09:10.988Z,95938.80
2019-03-10T12:11:40.694Z,95938.98
2019-03-10T12:14:10.358Z,95941.89
2019-03-10T12:16:39.968Z,95932.48
2019-03-10T12:19:09.599Z,95940.98
2019-03-10T12:21:39.194Z,95935.97
2019-03-10T12:24:08.824Z,95936.05
2019-03-10T12:26:38.499Z,95934.12
2019-03-10T12:29:08.235Z,95922.97
2019-03-10T12:31:37.849Z,95910.27
2019-03-10T12:34:07.625Z,95877.09
2019-03-10T12:36:37.295Z,95898.94
2019-03-10T12:39:08.624Z,95887.78
2019-03-10T12:41:38.392Z,95891.20
2019-03-10T12:44:07.993Z,95886.56
2019-03-10T12:46:37.655Z,95891.06
2019-03-10T12:49:07.347Z,95886.75
2019-03-10T12:51:36.941Z,95888.66
2019-03-10T12:54:06.633Z,95887.83
2019-03-10T12:56:36.232Z,95897.84
2019-03-10T12:59:05.861Z,95891.20
2019-03-10T13:01:35.551Z,95886.89
2019-03-10T13:04:05.322Z,95882.12
2019-03-10T13:06:34.916Z,95878.31
2019-03-10T13:09:06.849Z,95884.34
2019-03-10T13:11:36.448Z,95870.03
2019-03-10T13:14:06.074Z,95878.66
2019-03-10T13:16:35.668Z,95874.60
2019-03-10T13:19:05.365Z,95871.78
2019-03-10T13:21:35.062Z,95864.42
2019-03-10T13:24:04.670Z,95867.30
2019-03-10T13:26:34.270Z,95860.06
2019-03-10T13:29:03.904Z,95863.47
2019-03-10T13:31:33.500Z,95862.05
2019-03-10T13:34:03.131Z,95844.83
2019-03-10T13:36:32.757Z,95843.11
2019-03-10T13:39:02.458Z,95851.78
2019-03-10T13:41:32.123Z,95854.64
2019-03-10T13:44:01.815Z,95854.51
2019-03-10T13:46:31.609Z,95849.80
2019-03-10T13:49:01.343Z,95847.60
2019-03-10T13:51:31.044Z,95841.02
2019-03-10T13:54:00.640Z,95841.23
2019-03-10T13:56:30.309Z,95841.54
2019-03-10T13:59:00.068Z,95847.60
2019-03-10T14:01:29.737Z,95840.05
2019-03-10T14:04:00.350Z,95834.61
2019-03-10T14:06:30.147Z,95832.91
2019-03-10T14:08:59.913Z,95832.61
2019-03-10T14:11:29.693Z,95835.28
2019-03-10T14:13:59.390Z,95832.70
2019-03-10T14:16:29.046Z,95817.05
2019-03-10T14:18:58.692Z,95821.58
2019-03-10T14:21:28.896Z,95815.59
2019-03-10T14:23:58.560Z,95819.17
2019-03-10T14:26:28.228Z,95805.54
2019-03-10T14:28:57.923Z,95796.55
2019-03-10T14:31:27.526Z,95791.48
2019-03-10T14:33:57.419Z,95787.56
2019-03-10T14:36:27.248Z,95784.15
2019-03-10T14:38:56.849Z,95787.25
2019-03-10T14:41:26.619Z,95778.99
2019-03-10T14:43:56.247Z,95780.48
2019-03-10T14:46:25.933Z,95790.71
2019-03-10T14:48:55.617Z,95795.70
2019-03-10T14:51:25.300Z,95793.98
2019-03-10T14:53:54.996Z,95783.35
2019-03-10T14:56:24.739Z,95791.17
2019-03-10T14:58:54.364Z,95774.16
2019-03-10T15:01:23.966Z,95777.81
2019-03-10T15:03:53.672Z,95778.61
2019-03-10T15:06:23.368Z,95769.56
2019-03-10T15:08:53.047Z,95763.70
2019-03-10T15:11:22.670Z,95759.37
2019-03-10T15:13:52.311Z,95766.77
2019-03-10T15:16:21.937Z,95774.08
2019-03-10T15:18:51.562Z,95774.53
2019-03-10T15:21:21.191Z,95783.66
2019-03-10T15:23:50.787Z,95781.47
2019-03-10T15:26:20.487Z,95782.67
2019-03-10T15:28:50.621Z,95788.34
2019-03-10T15:31:20.328Z,95793.59
2019-03-10T15:33:49.927Z,95792.70
2019-03-10T15:36:20.939Z,95792.35
2019-03-10T15:38:50.632Z,95794.81
2019-03-10T15:41:20.331Z,95786.61
2019-03-10T15:43:49.955Z,95796.20
2019-03-10T15:46:19.645Z,95788.08
2019-03-10T15:48:49.264Z,95785.06
2019-03-10T15:51:18.924Z,95785.71
2019-03-10T15:53:48.578Z,95794.03
2019-03-10T15:56:18.152Z,95792.23
2019-03-10T15:58:47.749Z,95789.62
2019-03-10T16:01:17.547Z,95786.95
2019-03-10T16:03:47.318Z,95786.91
2019-03-10T16:06:16.922Z,95775.96
2019-03-10T16:08:46.597Z,95778.67
2019-03-10T16:11:16.225Z,95778.30
2019-03-10T16:13:45.855Z,95777.83
2019-03-10T16:16:15.448Z,95773.89
2019-03-10T16:18:45.071Z,95783.45
2019-03-10T16:21:14.670Z,95777.00
2019-03-10T16:23:44.364Z,95779.84
2019-03-10T16:26:13.958Z,95771.63
2019-03-10T16:28:43.588Z,95776.44
2019-03-10T16:31:13.186Z,95782.66
2019-03-10T16:33:42.813Z,95785.77
2019-03-10T16:36:12.480Z,95779.25
2019-03-10T16:38:42.172Z,95785.47
2019-03-10T16:41:11.810Z,95787.80
2019-03-10T16:43:41.403Z,95778.14
2019-03-10T16:46:11.016Z,95780.88
2019-03-10T16:48:40.643Z,95780.05
2019-03-10T16:51:10.229Z,95777.26
2019-03-10T16:53:41.707Z,95778.09
2019-03-10T16:56:11.241Z,95787.59
2019-03-10T16:58:40.833Z,95777.26
2019-03-10T17:01:10.460Z,95778.31
2019-03-10T17:03:40.061Z,95778.88
2019-03-10T17:06:09.760Z,95787.52
2019-03-10T17:08:39.375Z,95781.20
2019-03-10T17:11:09.117Z,95787.38
2019-03-10T17:13:38.809Z,95788.72
2019-03-10T17:16:08.404Z,95788.40
2019-03-10T17:18:38.147Z,95795.43
2019-03-10T17:21:07.799Z,95800.48
2019-03-10T17:23:37.469Z,95802.37
2019-03-10T17:26:07.160Z,95800.47
2019-03-10T17:28:36.759Z,95800.70
2019-03-10T17:31:06.433Z,95807.55
2019-03-10T17:33:36.041Z,95808.41
2019-03-10T17:36:05.808Z,95813.91
2019-03-10T17:38:35.419Z,95810.66
2019-03-10T17:41:05.154Z,95813.52
2019-03-10T17:43:34.776Z,95807.73
2019-03-10T17:46:04.440Z,95808.91
2019-03-10T17:48:34.068Z,95817.23
2019-03-10T17:51:03.666Z,95809.89
2019-03-10T17:53:33.430Z,95819.00
2019-03-10T17:56:03.128Z,95806.06
2019-03-10T17:58:33.997Z,95808.20
2019-03-10T18:01:03.938Z,95806.55
2019-03-10T18:03:33.534Z,95802.80
2019-03-10T18:06:03.232Z,95806.81
2019-03-10T18:08:33.036Z,95816.72
2019-03-10T18:11:02.712Z,95820.16
2019-03-10T18:13:32.420Z,95810.22
2019-03-10T18:16:02.705Z,95813.77
2019-03-10T18:18:32.424Z,95807.34
2019-03-10T18:21:02.098Z,95826.72
2019-03-10T18:23:31.726Z,95827.59
2019-03-10T18:26:01.329Z,95835.38
2019-03-10T18:28:30.955Z,95830.52
2019-03-10T18:31:00.553Z,95808.25
2019-03-10T18:33:30.180Z,95810.15
2019-03-10T18:35:59.816Z,95818.50
2019-03-10T18:38:29.443Z,95820.41
2019-03-10T18:40:59.044Z,95825.17
2019-03-10T18:43:28.680Z,95827.34
2019-03-10T18:45:58.295Z,95827.11
2019-03-10T18:48:27.920Z,95822.71
2019-03-10T18:50:57.517Z,95836.16
2019-03-10T18:53:27.147Z,95845.23
2019-03-10T18:55:56.886Z,95853.55
2019-03-10T18:58:26.515Z,95872.52
2019-03-10T19:00:56.118Z,95859.71
2019-03-10T19:03:25.747Z,95855.37
2019-03-10T19:05:55.378Z,95852.52
2019-03-10T19:08:24.973Z,95855.52
2019-03-10T19:10:54.669Z,95848.45
2019-03-10T19:13:24.292Z,95868.59
2019-03-10T19:15:53.894Z,95871.52
2019-03-10T19:18:23.530Z,95865.45
2019-03-10T19:20:53.124Z,95874.09
2019-03-10T19:23:22.745Z,95891.72
2019-03-10T19:25:52.365Z,95886.28
2019-03-10T19:28:21.982Z,95892.92
2019-03-10T19:30:51.611Z,95900.34
2019-03-10T19:33:21.241Z,95901.80
2019-03-10T19:35:50.837Z,95886.15
2019-03-10T19:38:20.481Z,95882.05
2019-03-10T19:40:50.150Z,95880.84
2019-03-10T19:43:19.759Z,95883.47
2019-03-10T19:45:49.386Z,95897.04
2019-03-10T19:48:18.976Z,95899.16
2019-03-10T19:50:48.594Z,95897.04
2019-03-10T19:53:18.189Z,95906.42
2019-03-10T19:55:47.812Z,95921.09
2019-03-10T19:58:17.432Z,95929.76
2019-03-10T20:00:47.096Z,95950.21
2019-03-10T20:03:16.793Z,95958.88
2019-03-10T20:05:46.384Z,95952.48
2019-03-10T20:08:16.064Z,95944.16
2019-03-10T20:10:45.755Z,95949.32
2019-03-10T20:13:15.346Z,95965.08
2019-03-10T20:15:45.860Z,95964.66
2019-03-10T20:18:15.486Z,95957.70
2019-03-10T20:20:45.215Z,95954.77
2019-03-10T20:23:14.812Z,95941.88
2019-03-10T20:25:44.427Z,95928.05
2019-03-10T20:28:14.013Z,95926.18
2019-03-10T20:30:43.635Z,95926.38
2019-03-10T20:33:13.228Z,95921.16
2019-03-10T20:35:42.854Z,95913.97
2019-03-10T20:38:12.476Z,95918.27
2019-03-10T20:40:42.073Z,95916.66
2019-03-10T20:43:11.691Z,95912.25
2019-03-10T20:45:41.351Z,95914.02
2019-03-10T20:48:10.976Z,95903.59
2019-03-10T20:50:40.573Z,95906.73
2019-03-10T20:53:10.271Z,95916.56
2019-03-10T20:55:39.891Z,95918.81
2019-03-10T20:58:09.591Z,95918.09
2019-03-10T21:00:39.328Z,95922.48
2019-03-10T21:03:08.943Z,95914.59
2019-03-10T21:05:38.537Z,95912.57
2019-03-10T21:08:08.166Z,95909.81
2019-03-10T21:10:37.755Z,95917.85
2019-03-10T21:13:07.449Z,95924.65
2019-03-10T21:15:37.039Z,95932.61
2019-03-10T21:18:06.767Z,95926.91
2019-03-10T21:20:36.334Z,95925.81
2019-03-10T21:23:06.118Z,95934.47
2019-03-10T21:25:35.762Z,95928.42
2019-03-10T21:28:05.453Z,95923.80
2019-03-10T21:30:35.684Z,95931.23
2019-03-10T21:33:05.372Z,95947.02
2019-03-10T21:35:34.992Z,95950.39
2019-03-10T21:38:04.584Z,95953.83
2019-03-10T21:40:35.219Z,95959.26
2019-03-10T21:43:04.902Z,95960.04
2019-03-10T21:45:34.892Z,95966.69
2019-03-10T21:48:04.755Z,95949.06
2019-03-10T21:50:34.452Z,95953.22
2019-03-10T21:53:04.049Z,95944.82
2019-03-10T21:55:33.679Z,95955.02
2019-03-10T21:58:03.278Z,95950.31
2019-03-10T22:00:32.871Z,95960.52
2019-03-10T22:03:02.488Z,95951.58
2019-03-10T22:05:32.102Z,95957.23
2019-03-10T22:08:01.723Z,95956.57
2019-03-10T22:10:31.346Z,95980.05
2019-03-10T22:13:00.936Z,95959.17
2019-03-10T22:15:40.716Z,95961.72
2019-03-10T22:18:01.971Z,95966.31
2019-03-10T22:20:31.571Z,95973.03
2019-03-10T22:23:01.206Z,95976.08
2019-03-10T22:25:30.822Z,95978.61
2019-03-10T22:28:00.444Z,95970.06
2019-03-10T22:30:30.046Z,95954.48
2019-03-10T22:32:59.649Z,95973.85
2019-03-10T22:35:29.271Z,95973.03
2019-03-10T22:37:58.893Z,95976.83
2019-03-10T22:40:28.530Z,95982.25
2019-03-10T22:42:58.113Z,95976.24
2019-03-10T22:45:27.732Z,95980.18
2019-03-10T22:47:57.325Z,95980.03
2019-03-10T22:50:26.942Z,95987.17
2019-03-10T22:52:56.564Z,95994.85
2019-03-10T22:55:26.165Z,96003.88
2019-03-10T22:57:55.791Z,96013.03
2019-03-10T23:00:31.611Z,96028.83
2019-03-10T23:03:01.207Z,96038.30
2019-03-10T23:05:30.842Z,96036.52
2019-03-10T23:08:00.438Z,96041.88
2019-03-10T23:10:30.063Z,96041.53
2019-03-10T23:12:59.662Z,96057.12
2019-03-10T23:15:29.290Z,96072.61
2019-03-10T23:17:58.905Z,96058.56
2019-03-10T23:20:28.597Z,96066.17
2019-03-10T23:22:58.194Z,96077.70
2019-03-10T23:25:27.811Z,96071.45
2019-03-10T23:27:57.499Z,96074.20
2019-03-10T23:30:27.114Z,96089.42
2019-03-10T23:32:56.713Z,96057.34
2019-03-10T23:35:26.330Z,96058.31
2019-03-10T23:37:55.929Z,96086.89
2019-03-10T23:40:25.628Z,96057.19
2019-03-10T23:42:55.913Z,96062.89
2019-03-10T23:45:25.563Z,96056.43
2019-03-10T23:47:55.132Z,96073.26
2019-03-10T23:50:24.754Z,96059.22
2019-03-10T23:52:54.351Z,96068.17
2019-03-10T23:55:23.984Z,96079.08
2019-03-10T23:57:53.644Z,96072.14
